Yoro, Honduras
Current Conditions -  °F | °C
As of 12:00 PM on Saturday 25 Oct 2014 (Local Time) from MHLC Reporting Station
Heavy Rain Heavy Rain  
Wind Chill: 73°   Ceiling: 1800
Heat Index: 73°   Visibility: 1.2mi
Dew Point: 72°   Wind: 8mph
Humidity: 94%   Direction: 230°SW
Pressure: 29.94"   Gusts: NA
Location:  15.13°N, 87.13°W
Report Text: MHLC 251800Z 23007KT 2000 +RA FEW003 BKN018CB 23/22 Q1014 A2997NOSIG
Loading
Personal Weather Stations






























Interactive Weather Map
Tropical Storm Tracking
New forecast layout! Learn more

10-Day Weather Forecast

Advertisements
Track Severe Weather on mobile